^^
Datos históricos de la estación: Murcia-Puente Tocinos
Diario Informe para Junio 6, 2021 Unidades:  Ingés    Métrico   Ambas
Diario Semanal Mensual Anual
  Máxima: Mínima: Promedio:
Temperatura: 79.2 °F 66.2 °F 72.1 °F
Punto de rocio: 64.2 °F 51.6 °F 58.3 °F
Humedad: 78% 50.5% 62%
Velocidad viento: 11.4mph 0mph 5.4mph
Racha viento: 20.7mph - -
Viento- - ESE
Presión: 30.2 in 30.1 in -
Precipitación: 0 in    
 
 
Tabla de datos para Junio 6, 2021
Hora Temperatura Punto de rocio Presión Viento Velocidad viento Racha viento Humedad Intensidad lluvia(por hora) Nubes
00:04 71.1 °F 51.6 °F 30.1 in Sur 6.2 mph 6.9 mph 50.5% 0 in
00:09 70.9 °F 51.8 °F 30.1 in Sur 5.3 mph 5.9 mph 51% 0 in
00:14 70.7 °F 51.6 °F 30.1 in SSO 3.6 mph 8.5 mph 51% 0 in
00:19 70.5 °F 51.8 °F 30.1 in SSO 4 mph 8.1 mph 51.7% 0 in
00:24 70.5 °F 52 °F 30.1 in SSO 4.7 mph 6.9 mph 52% 0 in
00:29 70.3 °F 52 °F 30.1 in Sur 4.4 mph 5.9 mph 52% 0 in
00:34 70.3 °F 52 °F 30.1 in SSE 4 mph 8.1 mph 52.3% 0 in
00:39 70.2 °F 52.2 °F 30.1 in Sur 4.3 mph 9.2 mph 53% 0 in
00:44 70 °F 52.2 °F 30.1 in SSO 4.7 mph 8.1 mph 53.2% 0 in
00:49 70 °F 52.5 °F 30.1 in SSO 4.7 mph 8.5 mph 54% 0 in
00:54 69.8 °F 52.5 °F 30.1 in SSO 4.7 mph 8.1 mph 54% 0 in
00:59 69.8 °F 52.3 °F 30.1 in Sur 4.9 mph 7.4 mph 54% 0 in
01:04 69.6 °F 52.5 °F 30.1 in Sur 5.2 mph 6.9 mph 54.4% 0 in
01:09 69.6 °F 52.7 °F 30.1 in SSO 4.8 mph 6.2 mph 55% 0 in
01:14 69.6 °F 52.7 °F 30.1 in SSO 4.3 mph 5.8 mph 55% 0 in
01:19 69.4 °F 52.7 °F 30.1 in Sur 4.2 mph 6.9 mph 55% 0 in
01:24 69.4 °F 53.1 °F 30.1 in Sur 4 mph 8.1 mph 56% 0 in
01:29 69.3 °F 52.9 °F 30.1 in Sur 4.5 mph 7.4 mph 56% 0 in
01:34 69.1 °F 53.1 °F 30.1 in Sur 5.2 mph 8.7 mph 56.8% 0 in
01:39 69.1 °F 53.1 °F 30.1 in Sur 5.3 mph 9.2 mph 57% 0 in
01:44 68.7 °F 52.9 °F 30.1 in SSO 5.4 mph 6.9 mph 57% 0 in
01:49 68.5 °F 53.2 °F 30.1 in SSO 5.2 mph 8.5 mph 57.9% 0 in
01:54 68.5 °F 53.2 °F 30.1 in SSO 4.7 mph 9.2 mph 58% 0 in
01:59 68.5 °F 53.2 °F 30.1 in SSO 5.3 mph 9.7 mph 58% 0 in
02:04 68.4 °F 53.4 °F 30.1 in Sur 6.2 mph 9.2 mph 58.7% 0 in
02:09 68.2 °F 53.2 °F 30.1 in Sur 5.9 mph 8.7 mph 59% 0 in
02:14 68.2 °F 53.6 °F 30.1 in SSO 5.4 mph 9.2 mph 59.7% 0 in
02:19 68.2 °F 53.8 °F 30.1 in SSO 5.2 mph 8.1 mph 60% 0 in
02:24 68 °F 53.6 °F 30.1 in SSO 4.7 mph 9.2 mph 60% 0 in
02:29 68.2 °F 53.8 °F 30.1 in SO 5.2 mph 8.1 mph 60% 0 in
02:34 68 °F 53.6 °F 30.1 in SSO 5.9 mph 6.9 mph 60% 0 in
02:39 68 °F 53.6 °F 30.1 in SSE 5.2 mph 4.7 mph 60% 0 in
02:44 68.2 °F 54 °F 30.1 in SE 4 mph 5.2 mph 60.4% 0 in
02:49 68 °F 54 °F 30.1 in SE 3.5 mph 4.6 mph 61% 0 in
02:54 67.8 °F 54 °F 30.1 in Sur 2.9 mph 5.2 mph 61% 0 in
02:59 67.8 °F 54 °F 30.1 in Sur 3.2 mph 5.8 mph 61% 0 in
03:04 67.8 °F 54 °F 30.1 in SSE 3.6 mph 4.6 mph 61% 0 in
03:09 67.8 °F 53.8 °F 30.1 in SE 3.4 mph 4.6 mph 61% 0 in
03:14 67.5 °F 53.8 °F 30.1 in SSE 2.9 mph 6.9 mph 61.5% 0 in
03:19 67.1 °F 53.8 °F 30.1 in SSE 3.4 mph 8.1 mph 62.2% 0 in
03:24 66.7 °F 53.8 °F 30.1 in Sur 4 mph 9.2 mph 63% 0 in
03:29 66.6 °F 54 °F 30.1 in Sur 4.7 mph 8.5 mph 64% 0 in
03:34 66.6 °F 54 °F 30.1 in Sur 5.9 mph 6.9 mph 64% 0 in
03:39 66.7 °F 53.8 °F 30.1 in SSE 5.4 mph 7.4 mph 63.3% 0 in
03:44 66.7 °F 53.8 °F 30.1 in Sur 4.7 mph 7.4 mph 63% 0 in
03:49 66.7 °F 53.8 °F 30.1 in Sur 4.9 mph 9.2 mph 63% 0 in
03:54 67.1 °F 54 °F 30.1 in SSO 5.2 mph 10.7 mph 63% 0 in
03:59 67.5 °F 54 °F 30.1 in SSO 5.7 mph 9.2 mph 62% 0 in
04:04 67.5 °F 54 °F 30.1 in Sur 6.2 mph 12.7 mph 62% 0 in
04:09 67.6 °F 54 °F 30.1 in Sur 6.6 mph 11.5 mph 61.5% 0 in
04:14 67.6 °F 53.8 °F 30.1 in SSE 7.4 mph 9.2 mph 61% 0 in
04:19 67.6 °F 53.8 °F 30.1 in Sur 6.6 mph 8.5 mph 61% 0 in
04:24 67.6 °F 54.1 °F 30.1 in SSO 5.4 mph 8.5 mph 62% 0 in
04:29 67.5 °F 54 °F 30.1 in Sur 5.3 mph 8.1 mph 62% 0 in
04:34 67.5 °F 54 °F 30.1 in SSE 5.2 mph 6.9 mph 62% 0 in
04:39 67.5 °F 54 °F 30.1 in Sur 5.2 mph 7.4 mph 62% 0 in
04:44 67.5 °F 53.8 °F 30.1 in Sur 5.2 mph 8.5 mph 61.8% 0 in
04:49 67.6 °F 53.6 °F 30.1 in Sur 5.3 mph 8.1 mph 61% 0 in
04:54 67.8 °F 53.6 °F 30.1 in Sur 5.4 mph 8.1 mph 60.4% 0 in
04:59 68.2 °F 53.8 °F 30.1 in SSE 5.1 mph 6.9 mph 60% 0 in
05:04 68.2 °F 53.8 °F 30.1 in SE 4.7 mph 5.9 mph 60% 0 in
05:09 68 °F 53.6 °F 30.1 in SSE 4.5 mph 5.9 mph 60% 0 in
05:14 67.6 °F 53.6 °F 30.1 in Sur 4 mph 6.9 mph 60.6% 0 in
05:19 67.6 °F 53.4 °F 30.1 in SSO 4.3 mph 7.4 mph 60.1% 0 in
05:24 67.8 °F 53.2 °F 30.1 in SO 4.7 mph 6.9 mph 59.5% 0 in
05:29 68.4 °F 53.2 °F 30.1 in SO 4.5 mph 6.2 mph 58.8% 0 in
05:34 68.5 °F 53.2 °F 30.1 in OSO 4.3 mph 5.8 mph 58% 0 in
05:39 68.5 °F 53.2 °F 30.1 in OSO 3.5 mph 2.9 mph 58% 0 in
05:44 68.5 °F 53.2 °F 30.1 in OSO 2.4 mph 2.3 mph 58% 0 in
05:49 68.4 °F 53.1 °F 30.1 in OSO 1.5 mph   58% 0 in
05:54 68.4 °F 53.1 °F 30.1 in Calm   3.6 mph 58% 0 in
05:59 68.5 °F 53.2 °F 30.1 in Sur 1.1 mph 5.8 mph 58% 0 in
06:04 68.5 °F 53.2 °F 30.1 in SE 2.4 mph 5.9 mph 58% 0 in
06:09 68.5 °F 53.2 °F 30.1 in SSE 2.9 mph 5.9 mph 58.2% 0 in
06:14 68.5 °F 53.2 °F 30.1 in Sur 3.6 mph 7.4 mph 58% 0 in
06:19 68.4 °F 53.1 °F 30.1 in Sur 4 mph 6.9 mph 58% 0 in
06:24 68.4 °F 53.1 °F 30.1 in Sur 4.7 mph 5.2 mph 58% 0 in
06:29 68.4 °F 53.1 °F 30.1 in SSO 4.3 mph 5.4 mph 58.3% 0 in
06:34 68.4 °F 53.4 °F 30.1 in SO 3.6 mph 6.9 mph 58.7% 0 in
06:39 68.4 °F 53.1 °F 30.1 in SSO 3.9 mph 8.5 mph 58% 0 in
06:44 68.5 °F 53.1 °F 30.1 in Sur 4.3 mph 5.8 mph 58% 0 in
06:49 68.5 °F 53.2 °F 30.1 in Sur 3.9 mph 4.7 mph 58% 0 in
06:54 68.4 °F 53.1 °F 30.1 in SO 3.1 mph 5.2 mph 58% 0 in
06:59 68.4 °F 53.4 °F 30.1 in SO 3 mph 4.6 mph 59% 0 in
07:04 68.2 °F 53.2 °F 30.1 in SO 2.9 mph 4.6 mph 59% 0 in
07:09 68 °F 53.1 °F 30.1 in SO 3 mph 5.4 mph 59% 0 in
07:14 67.8 °F 53.2 °F 30.1 in OSO 3.1 mph 5.8 mph 59.8% 0 in
07:19 67.5 °F 53.2 °F 30.1 in OSO 3.3 mph 5.8 mph 60.3% 0 in
07:24 67.3 °F 53.4 °F 30.1 in Oeste 3.6 mph 5.9 mph 61.2% 0 in
07:29 66.9 °F 53.4 °F 30.1 in OSO 3.6 mph 5.8 mph 62% 0 in
07:34 66.7 °F 53.4 °F 30.1 in Sur 3.6 mph 5.4 mph 62.6% 0 in
07:39 66.6 °F 53.6 °F 30.1 in SSE 3.4 mph 6.2 mph 63% 0 in
07:44 66.4 °F 53.4 °F 30.1 in SSE 2.9 mph 8.1 mph 63.1% 0 in
07:49 66.2 °F 53.8 °F 30.1 in SSE 3.4 mph 6.9 mph 64% 0 in
07:54 66.4 °F 53.4 °F 30.1 in SSE 4.3 mph 6.9 mph 63.3% 0 in
07:59 66.6 °F 53.6 °F 30.1 in Sur 4.5 mph 6.2 mph 63% 0 in
08:04 66.6 °F 53.2 °F 30.1 in Sur 4.7 mph 6.2 mph 62.2% 0 in
08:09 66.7 °F 53.2 °F 30.1 in Sur 4.5 mph 6.2 mph 62% 0 in
08:14 66.7 °F 53.2 °F 30.1 in SSO 4.3 mph 6.2 mph 62% 0 in
08:19 66.9 °F 53.4 °F 30.1 in SO 4.3 mph 5.8 mph 62% 0 in
08:24 66.9 °F 53.4 °F 30.1 in SSO 4.3 mph 5.9 mph 62% 0 in
08:29 67.1 °F 53.6 °F 30.1 in SO 4 mph 5.2 mph 62% 0 in
08:34 67.1 °F 53.6 °F 30.1 in SO 3.6 mph 6.2 mph 62% 0 in
08:39 67.1 °F 53.6 °F 30.1 in OSO 3.8 mph 4.7 mph 62% 0 in
08:44 67.1 °F 53.6 °F 30.1 in OSO 4 mph 4.6 mph 62% 0 in
08:49 67.1 °F 53.6 °F 30.1 in OSO 3.5 mph 4.6 mph 62% 0 in
08:54 67.1 °F 53.6 °F 30.1 in OSO 2.9 mph 4.6 mph 62% 0 in
08:59 67.3 °F 54 °F 30.1 in SO 2.9 mph 4.7 mph 62.4% 0 in
09:04 67.5 °F 54.3 °F 30.1 in SO 2.9 mph 4.6 mph 62.9% 0 in
09:09 67.6 °F 54.1 °F 30.1 in OSO 2.9 mph 4.6 mph 62% 0 in
09:14 68 °F 54.3 °F 30.1 in OSO 2.9 mph 5.2 mph 61.6% 0 in
09:19 68.4 °F 54.5 °F 30.1 in SO 2.5 mph 4.7 mph 61% 0 in
09:24 68.7 °F 54.7 °F 30.1 in OSO 2 mph 4.6 mph 60.8% 0 in
09:29 69.3 °F 54.7 °F 30.1 in SO 2.2 mph 5.2 mph 59.7% 0 in
09:34 69.4 °F 54.5 °F 30.1 in SO 2.4 mph 4.6 mph 58.9% 0 in
09:39 69.6 °F 54.1 °F 30.2 in SO 2.7 mph 4.7 mph 58% 0 in
09:44 69.8 °F 54.5 °F 30.2 in SO 3.1 mph 4.7 mph 58% 0 in
09:49 70.2 °F 54.3 °F 30.2 in SO 3 mph 4.7 mph 57.5% 0 in
09:54 70.3 °F 54.5 °F 30.2 in SO 2.9 mph 5.2 mph 57% 0 in
09:59 70.7 °F 54.3 °F 30.2 in SO 3 mph 4.7 mph 56.4% 0 in
10:04 71.1 °F 54.5 °F 30.2 in OSO 3.1 mph 5.2 mph 56% 0 in
10:09 71.2 °F 54.1 °F 30.2 in SO 3.1 mph 6.9 mph 55% 0 in
10:14 71.4 °F 54.5 °F 30.2 in OSO 3.1 mph 6.9 mph 55% 0 in
10:19 71.8 °F 54.7 °F 30.2 in SO 3.3 mph 4.7 mph 55% 0 in
10:24 72.1 °F 54.9 °F 30.2 in SO 3.6 mph 5.9 mph 54.8% 0 in
10:29 72.3 °F 54.7 °F 30.2 in OSO 3.6 mph 6.9 mph 54% 0 in
10:34 72.5 °F 55 °F 30.2 in OSO 3.6 mph 6.4 mph 54.4% 0 in
10:39 72.9 °F 54.9 °F 30.2 in OSO 3.3 mph 6.9 mph 53.3% 0 in
10:44 73 °F 54.9 °F 30.2 in SO 2.9 mph 6.9 mph 53% 0 in
10:49 73.2 °F 54.7 °F 30.2 in SSO 3.4 mph 6.9 mph 52.3% 0 in
10:54 73.8 °F 54.9 °F 30.2 in Sur 4 mph 4.7 mph 52% 0 in
10:59 73.9 °F 54.9 °F 30.2 in SSO 3.5 mph 6.9 mph 51.3% 0 in
11:04 74.1 °F 54.9 °F 30.2 in SSO 2.9 mph 7.4 mph 51% 0 in
11:09 74.1 °F 54.7 °F 30.2 in Sur 3.5 mph 7.4 mph 51% 0 in
11:14 74.3 °F 55 °F 30.2 in SSO 4.3 mph 6.2 mph 51% 0 in
11:19 74.5 °F 55.2 °F 30.2 in OSO 4.2 mph 5.9 mph 51% 0 in
11:24 74.7 °F 55.8 °F 30.2 in OSO 4 mph 5.8 mph 51.6% 0 in
11:29 74.8 °F 55.9 °F 30.2 in Oeste 3.9 mph 5.4 mph 51.9% 0 in
11:34 75 °F 56.7 °F 30.2 in Oeste 3.6 mph 5.8 mph 53% 0 in
11:39 75 °F 57.4 °F 30.2 in NNO 3.4 mph 4.7 mph 54.2% 0 in
11:44 75.6 °F 57.7 °F 30.2 in NNE 3.1 mph 5.2 mph 54% 0 in
11:49 76.1 °F 57.7 °F 30.2 in Sur 2.8 mph 4.6 mph 53% 0 in
11:54 76.6 °F 58.1 °F 30.2 in NO 2.4 mph 5.2 mph 52.5% 0 in
11:59 76.8 °F 58.1 °F 30.2 in NNO 2.6 mph 6.9 mph 52.4% 0 in
12:04 76.8 °F 58.5 °F 30.2 in NNE 2.9 mph 6.9 mph 53% 0 in
12:09 76.8 °F 58.8 °F 30.2 in NE 3.2 mph 9.2 mph 54% 0 in
12:14 76.6 °F 59.2 °F 30.2 in NE 3.6 mph 6.9 mph 54.8% 0 in
12:19 77 °F 59.5 °F 30.2 in NE 3.6 mph 9.2 mph 54.9% 0 in
12:24 77 °F 59.5 °F 30.2 in NNE 3.6 mph 10.7 mph 54.8% 0 in
12:29 77 °F 59.9 °F 30.2 in NNE 4.3 mph 13 mph 55.7% 0 in
12:34 77 °F 60.1 °F 30.2 in NE 5.4 mph 16.1 mph 56% 0 in
12:39 77 °F 60.1 °F 30.2 in NE 6.3 mph 12.7 mph 56.2% 0 in
12:44 77 °F 60.3 °F 30.2 in NNE 7.6 mph 12.7 mph 56.4% 0 in
12:49 77.2 °F 60.6 °F 30.2 in NE 7.3 mph 12.7 mph 56.8% 0 in
12:54 77.5 °F 60.6 °F 30.2 in NE 6.9 mph 15 mph 56.1% 0 in
12:59 77.5 °F 60.4 °F 30.2 in NE 7.2 mph 15 mph 55.8% 0 in
13:04 77.5 °F 60.6 °F 30.2 in NNE 7.6 mph 13.8 mph 55.7% 0 in
13:09 77.7 °F 60.4 °F 30.2 in NE 8 mph 16.3 mph 55.2% 0 in
13:14 77.9 °F 60.6 °F 30.2 in ENE 8.5 mph 15 mph 55.4% 0 in
13:19 78.4 °F 61 °F 30.2 in NE 7.9 mph 12.7 mph 55.1% 0 in
13:24 78.4 °F 61 °F 30.2 in NE 6.9 mph 15.2 mph 55.1% 0 in
13:29 78.1 °F 61.2 °F 30.2 in NE 7.5 mph 12.7 mph 56% 0 in
13:34 78.3 °F 61.5 °F 30.2 in NE 8.5 mph 15 mph 56.5% 0 in
13:39 78.6 °F 61.7 °F 30.2 in NE 7.9 mph 17.5 mph 56% 0 in
13:44 78.4 °F 61.7 °F 30.2 in NE 6.9 mph 17.3 mph 56.3% 0 in
13:49 78.1 °F 61.9 °F 30.2 in NE 8 mph 13.7 mph 57.4% 0 in
13:54 78.1 °F 61.7 °F 30.2 in NE 9.7 mph 13.8 mph 57.3% 0 in
13:59 77.9 °F 62.1 °F 30.2 in ENE 9 mph 13 mph 58% 0 in
14:04 78.1 °F 61.9 °F 30.2 in NNE 8.1 mph 16.1 mph 57.5% 0 in
14:09 77.9 °F 62.2 °F 30.2 in NE 8.5 mph 15 mph 58.7% 0 in
14:14 77.7 °F 62.4 °F 30.2 in NNE 9.2 mph 18.5 mph 59.5% 0 in
14:19 77.7 °F 62.4 °F 30.2 in NE 9.2 mph 17.3 mph 59.3% 0 in
14:24 77.5 °F 62.4 °F 30.2 in NE 9.2 mph 17.3 mph 59.5% 0 in
14:29 77.5 °F 62.1 °F 30.1 in ENE 9.2 mph 16.1 mph 59% 0 in
14:34 78.1 °F 62.4 °F 30.1 in ENE 9.2 mph 9.2 mph 58.5% 0 in
14:39 79 °F 63.1 °F 30.1 in Este 7.7 mph 11.5 mph 58.7% 0 in
14:44 79.2 °F 62.8 °F 30.1 in NE 5.4 mph 16.1 mph 57.5% 0 in
14:49 78.4 °F 62.6 °F 30.1 in NE 6.8 mph 13.8 mph 58.5% 0 in
14:54 78.3 °F 62.8 °F 30.1 in NE 8.7 mph 13.8 mph 58.9% 0 in
14:59 78.4 °F 62.8 °F 30.1 in ENE 8.4 mph 16.1 mph 58.9% 0 in
15:04 78.4 °F 63 °F 30.1 in NE 8.1 mph 15.2 mph 59% 0 in
15:09 78.4 °F 63 °F 30.1 in ENE 8.3 mph 14.7 mph 59.3% 0 in
15:14 78.4 °F 62.8 °F 30.1 in ENE 8.5 mph 15 mph 58.6% 0 in
15:19 78.4 °F 62.8 °F 30.1 in ENE 8.5 mph 16.1 mph 58.9% 0 in
15:24 78.8 °F 63 °F 30.1 in NE 8.5 mph 14 mph 58.4% 0 in
15:29 78.8 °F 62.8 °F 30.1 in ENE 7.9 mph 14.5 mph 58.1% 0 in
15:34 78.6 °F 63 °F 30.1 in ENE 6.9 mph 15.6 mph 58.8% 0 in
15:39 78.4 °F 62.6 °F 30.1 in NE 7.6 mph 16.1 mph 58.4% 0 in
15:44 78.4 °F 62.8 °F 30.1 in ENE 8.5 mph 14 mph 58.7% 0 in
15:49 78.3 °F 62.6 °F 30.1 in NE 8.6 mph 15.2 mph 58.7% 0 in
15:54 78.1 °F 62.6 °F 30.1 in NE 8.7 mph 16.3 mph 59% 0 in
15:59 78.1 °F 63 °F 30.1 in NE 9.1 mph 16.1 mph 59.7% 0 in
16:04 78.1 °F 63.1 °F 30.1 in NE 9.7 mph 14.7 mph 60.1% 0 in
16:09 78.1 °F 62.8 °F 30.1 in NE 9.7 mph 15 mph 59.2% 0 in
16:14 78.3 °F 63 °F 30.1 in ENE 9.7 mph 13.8 mph 59.6% 0 in
16:19 78.3 °F 63.1 °F 30.1 in NE 8.9 mph 15.2 mph 60% 0 in
16:24 78.3 °F 63 °F 30.1 in NE 7.6 mph 15 mph 59.1% 0 in
16:29 78.4 °F 62.8 °F 30.1 in NE 8 mph 13.8 mph 58.9% 0 in
16:34 78.3 °F 62.8 °F 30.1 in NE 8.5 mph 15.6 mph 58.9% 0 in
16:39 78.3 °F 63 °F 30.1 in ENE 8.3 mph 16.1 mph 59.4% 0 in
16:44 78.4 °F 63.1 °F 30.1 in NE 8.1 mph 17.3 mph 59.6% 0 in
16:49 78.3 °F 63.3 °F 30.1 in NE 8.3 mph 16.3 mph 60.2% 0 in
16:54 78.1 °F 63.3 °F 30.1 in NE 8.5 mph 16.1 mph 60.4% 0 in
16:59 78.1 °F 63.5 °F 30.1 in NE 8.8 mph 17.5 mph 60.9% 0 in
17:04 78.1 °F 63.5 °F 30.1 in NE 9.2 mph 15 mph 61.1% 0 in
17:09 78.1 °F 63.7 °F 30.1 in NE 8.9 mph 16.1 mph 61.5% 0 in
17:14 77.7 °F 63.7 °F 30.1 in NE 8.5 mph 16.1 mph 62% 0 in
17:19 77.5 °F 63.5 °F 30.1 in NE 8.9 mph 17.3 mph 62% 0 in
17:24 77.4 °F 63.9 °F 30.1 in NE 9.7 mph 18.4 mph 63.1% 0 in
17:29 77 °F 63.9 °F 30.1 in NE 10.3 mph 20.7 mph 64% 0 in
17:34 76.8 °F 63.9 °F 30.1 in NE 11.4 mph 18.4 mph 64.3% 0 in
17:39 76.8 °F 64.2 °F 30.1 in NE 10.9 mph 16.1 mph 64.9% 0 in
17:44 77.2 °F 64 °F 30.1 in ENE 10.2 mph 16.1 mph 64.2% 0 in
17:49 77.2 °F 64 °F 30.1 in NE 9.4 mph 14.7 mph 64% 0 in
17:54 77 °F 63.9 °F 30.1 in ENE 8.1 mph 15 mph 64.2% 0 in
17:59 76.8 °F 63.7 °F 30.1 in NE 8.8 mph 17.3 mph 64.2% 0 in
18:04 76.6 °F 63.9 °F 30.1 in NE 9.7 mph 16.1 mph 64.3% 0 in
18:09 76.6 °F 64 °F 30.1 in NE 9.3 mph 15 mph 65% 0 in
18:14 76.6 °F 64 °F 30.1 in ENE 8.7 mph 16.1 mph 65% 0 in
18:19 76.5 °F 63.9 °F 30.1 in NE 8.3 mph 18.4 mph 65% 0 in
18:24 76.3 °F 63.7 °F 30.1 in ENE 7.6 mph 16.1 mph 65% 0 in
18:29 76.1 °F 63.9 °F 30.1 in NE 8 mph 15 mph 65.9% 0 in
18:34 75.9 °F 63.7 °F 30.1 in NE 8.7 mph 16.1 mph 66% 0 in
18:39 75.7 °F 63.7 °F 30.1 in ENE 8.3 mph 13.8 mph 66% 0 in
18:44 75.7 °F 63.7 °F 30.1 in ENE 7.6 mph 15 mph 66% 0 in
18:49 75.6 °F 63.5 °F 30.1 in ENE 7.3 mph 15.2 mph 66.1% 0 in
18:54 75.6 °F 63.7 °F 30.1 in NE 6.9 mph 17 mph 66.8% 0 in
18:59 75 °F 63.7 °F 30.1 in NE 7.7 mph 17.5 mph 67.7% 0 in
19:04 74.8 °F 63.7 °F 30.1 in NE 8.7 mph 15 mph 68.3% 0 in
19:09 74.7 °F 63.9 °F 30.1 in NE 8.4 mph 12.7 mph 69% 0 in
19:14 74.5 °F 63.7 °F 30.1 in ENE 8.1 mph 10.4 mph 69% 0 in
19:19 74.5 °F 63.7 °F 30.1 in NE 7.3 mph 13.8 mph 69.2% 0 in
19:24 74.1 °F 63.9 °F 30.1 in NE 5.9 mph 10.4 mph 70% 0 in
19:29 73.9 °F 63.7 °F 30.1 in NE 6.1 mph 13 mph 70.2% 0 in
19:34 73.8 °F 63.9 °F 30.1 in NE 6.4 mph 15 mph 71% 0 in
19:39 73.6 °F 63.7 °F 30.1 in NE 6.9 mph 12.7 mph 71% 0 in
19:44 73.4 °F 63.5 °F 30.1 in NE 7.6 mph 13.8 mph 71% 0 in
19:49 73.2 °F 63.5 °F 30.1 in NE 7.3 mph 10.4 mph 71.9% 0 in
19:54 73 °F 63.5 °F 30.1 in NE 6.9 mph 10.4 mph 72% 0 in
19:59 73 °F 63.5 °F 30.1 in NE 6.5 mph 10 mph 72% 0 in
20:04 72.9 °F 63.7 °F 30.1 in NE 5.9 mph 10.4 mph 72.8% 0 in
20:09 72.9 °F 63.7 °F 30.1 in NE 5.7 mph 8.1 mph 73% 0 in
20:14 72.7 °F 63.5 °F 30.1 in NE 5.4 mph 9.2 mph 73% 0 in
20:19 72.7 °F 63.5 °F 30.1 in NE 5.4 mph 9.2 mph 73% 0 in
20:24 72.5 °F 63.3 °F 30.1 in NE 5.4 mph 9.2 mph 73% 0 in
20:29 72.3 °F 63.5 °F 30.1 in NE 5.6 mph 11.5 mph 73.5% 0 in
20:34 72.1 °F 63.5 °F 30.1 in NE 5.9 mph 10.4 mph 74% 0 in
20:39 72.1 °F 63.3 °F 30.2 in NE 5.7 mph 10.4 mph 74% 0 in
20:44 72.1 °F 63.5 °F 30.2 in NE 5.4 mph 8.1 mph 74.3% 0 in
20:49 72 °F 63.7 °F 30.2 in NE 5.1 mph 6.2 mph 75% 0 in
20:54 72 °F 63.7 °F 30.2 in NE 4.7 mph 8.1 mph 75% 0 in
20:59 72 °F 63.5 °F 30.2 in NE 4.5 mph 6.9 mph 75% 0 in
21:04 71.8 °F 63.3 °F 30.2 in NE 4.3 mph 8.5 mph 75% 0 in
21:09 71.8 °F 63.5 °F 30.2 in NNE 4.3 mph 7.4 mph 75.3% 0 in
21:14 71.6 °F 63.7 °F 30.2 in NNE 4.3 mph 5.8 mph 76% 0 in
21:19 71.4 °F 63.5 °F 30.2 in NNE 4.2 mph 6.2 mph 76% 0 in
21:24 71.2 °F 63.3 °F 30.2 in NNE 4 mph 8.1 mph 76% 0 in
21:29 71.2 °F 63.5 °F 30.2 in NNE 4.5 mph 8.5 mph 76.5% 0 in
21:34 71.1 °F 63.5 °F 30.2 in NE 5.2 mph 6.9 mph 77% 0 in
21:39 71.1 °F 63.5 °F 30.2 in NNE 5 mph 8.1 mph 77% 0 in
21:44 70.9 °F 63.3 °F 30.2 in NNE 4.7 mph 6.9 mph 77% 0 in
21:49 70.9 °F 63.3 °F 30.2 in NE 4.7 mph 6.9 mph 77% 0 in
21:54 70.9 °F 63.1 °F 30.2 in NNE 4.7 mph 8.5 mph 77% 0 in
21:59 70.7 °F 63.1 °F 30.2 in NNE 5 mph 8.1 mph 77% 0 in
22:04 70.5 °F 63 °F 30.2 in NNE 5.4 mph 6.9 mph 77.1% 0 in
22:09 70.5 °F 63.3 °F 30.2 in NNE 4.8 mph 6.9 mph 77.9% 0 in
22:14 70.5 °F 63.3 °F 30.2 in NNE 4 mph 6.9 mph 78% 0 in
22:19 70.3 °F 63.1 °F 30.2 in NNE 4 mph 6.9 mph 78% 0 in
22:24 70.3 °F 63.1 °F 30.2 in NE 4 mph 6.9 mph 78% 0 in
22:29 70.3 °F 63.1 °F 30.2 in NE 4.3 mph 7.4 mph 78% 0 in
22:34 70.3 °F 63.1 °F 30.2 in NNE 4.7 mph 8.5 mph 78% 0 in
22:39 70.2 °F 63 °F 30.2 in NNE 4.7 mph 6.9 mph 78% 0 in
22:44 70.2 °F 63 °F 30.2 in NE 4.7 mph 6.4 mph 78% 0 in
22:49 70.2 °F 63 °F 30.2 in NNE 4.4 mph 6.9 mph 78% 0 in
22:54 70.2 °F 63 °F 30.2 in NNE 4 mph 6.9 mph 78% 0 in
22:59 70.2 °F 63 °F 30.2 in NNE 3.9 mph 6.2 mph 78% 0 in
23:04 70.2 °F 63 °F 30.2 in NNE 3.6 mph 7.4 mph 78% 0 in
23:09 70 °F 62.8 °F 30.2 in NNE 3.7 mph 6.9 mph 78% 0 in
23:14 70 °F 62.8 °F 30.2 in NNE 4 mph 6.9 mph 78% 0 in
23:19 70 °F 62.8 °F 30.2 in NNE 4.1 mph 6.2 mph 78% 0 in
23:24 69.8 °F 62.6 °F 30.2 in NE 4.3 mph 6.9 mph 78% 0 in
23:29 69.8 °F 62.6 °F 30.2 in NE 4.3 mph 6.9 mph 78% 0 in
23:34 69.8 °F 62.6 °F 30.2 in NE 4.3 mph 6.9 mph 78% 0 in
23:39 69.8 °F 62.6 °F 30.2 in NE 4.5 mph 7.4 mph 78% 0 in
23:44 70 °F 62.8 °F 30.2 in NE 4.7 mph 8.1 mph 78% 0 in
23:49 70 °F 62.8 °F 30.2 in NE 5 mph 9.2 mph 78% 0 in
23:54 70.2 °F 62.8 °F 30.2 in NE 5.4 mph 8.1 mph 77.6% 0 in
23:59 70.2 °F 62.6 °F 30.2 in NE 5.3 mph 8.1 mph 77% 0 in
Murcia-Puente Tocinos, España
Compliments of Weather Underground - 3 mb

La estación de MeteoMurcia.com, publica sus datos en los siguientes proyectos:

Weather Underground PWS IMURCIAP2 Meteoclimatic www.awekas.at

W3Counter
Web Analytics